createdAt,value
2022-11-26T00:01:16.658Z,0.67
2022-11-26T00:03:43.356Z,0.60
2022-11-26T00:06:31.137Z,0.60
2022-11-26T00:08:58.793Z,0.53
2022-11-26T00:11:25.392Z,0.60
2022-11-26T00:13:51.985Z,0.60
2022-11-26T00:16:18.624Z,0.60
2022-11-26T00:18:45.260Z,0.60
2022-11-26T00:21:24.921Z,0.60
2022-11-26T00:23:51.773Z,0.50
2022-11-26T00:26:21.988Z,0.60
2022-11-26T00:28:56.537Z,0.80
2022-11-26T00:31:23.350Z,0.50
2022-11-26T00:33:50.002Z,1.00
2022-11-26T00:36:21.647Z,0.60
2022-11-26T00:38:51.631Z,0.70
2022-11-26T00:41:19.272Z,0.70
2022-11-26T00:43:46.333Z,0.50
2022-11-26T00:46:17.158Z,0.70
2022-11-26T00:48:43.798Z,0.70
2022-11-26T00:51:20.608Z,0.80
2022-11-26T00:53:47.187Z,0.70
2022-11-26T00:56:19.146Z,0.60
2022-11-26T00:58:46.254Z,0.60
2022-11-26T01:01:16.419Z,0.60
2022-11-26T01:03:43.131Z,0.50
2022-11-26T01:06:20.847Z,0.60
2022-11-26T01:08:47.470Z,0.50
2022-11-26T01:11:17.354Z,0.57
2022-11-26T01:13:44.435Z,0.70
2022-11-26T01:16:31.036Z,0.43
2022-11-26T01:18:58.719Z,0.60
2022-11-26T01:21:26.370Z,0.70
2022-11-26T01:23:52.965Z,0.50
2022-11-26T01:26:24.442Z,0.50
2022-11-26T01:28:51.256Z,0.70
2022-11-26T01:31:20.209Z,0.57
2022-11-26T01:33:46.814Z,0.50
2022-11-26T01:36:31.028Z,0.53
2022-11-26T01:38:59.238Z,0.70
2022-11-26T01:41:56.612Z,0.50
2022-11-26T01:44:25.286Z,0.77
2022-11-26T01:46:52.185Z,0.63
2022-11-26T01:49:32.914Z,0.63
2022-11-26T01:51:59.434Z,0.70
2022-11-26T01:54:26.000Z,0.50
2022-11-26T01:56:53.687Z,0.60
2022-11-26T01:59:24.475Z,0.57
2022-11-26T02:01:52.333Z,0.60
2022-11-26T02:04:27.154Z,0.50
2022-11-26T02:06:54.047Z,0.50
2022-11-26T02:09:20.713Z,0.60
2022-11-26T02:11:47.287Z,0.60
2022-11-26T02:14:34.378Z,0.50
2022-11-26T02:17:17.692Z,0.60
2022-11-26T02:20:00.062Z,0.60
2022-11-26T02:22:32.361Z,0.50
2022-11-26T02:25:14.257Z,0.50
2022-11-26T02:27:59.519Z,0.53
2022-11-26T02:30:26.092Z,0.50
2022-11-26T02:33:00.149Z,0.70
2022-11-26T02:35:41.342Z,0.60
2022-11-26T02:38:11.183Z,0.50
2022-11-26T02:40:37.739Z,0.60
2022-11-26T02:43:04.314Z,0.60
2022-11-26T02:45:32.539Z,0.70
2022-11-26T02:48:00.201Z,0.70
2022-11-26T02:50:38.086Z,0.43
2022-11-26T02:53:04.707Z,0.67
2022-11-26T02:55:35.922Z,0.70
2022-11-26T02:58:02.485Z,0.60
2022-11-26T03:00:29.054Z,0.60
2022-11-26T03:03:03.961Z,0.60
2022-11-26T03:05:34.936Z,0.50
2022-11-26T03:08:01.566Z,0.70
2022-11-26T03:10:28.442Z,0.50
2022-11-26T03:12:55.092Z,0.60
2022-11-26T03:15:21.673Z,0.60
2022-11-26T03:17:48.328Z,0.63
2022-11-26T03:20:15.267Z,0.80
2022-11-26T03:22:41.927Z,0.60
2022-11-26T03:25:08.591Z,0.67
2022-11-26T03:27:35.182Z,0.60
2022-11-26T03:30:01.958Z,0.50
2022-11-26T03:32:28.662Z,0.50
2022-11-26T03:34:55.233Z,0.50
2022-11-26T03:37:21.837Z,0.50
2022-11-26T03:39:48.401Z,0.50
2022-11-26T03:42:14.981Z,0.50
2022-11-26T03:44:41.618Z,0.50
2022-11-26T03:47:08.186Z,0.53
2022-11-26T03:49:34.776Z,0.70
2022-11-26T03:52:01.370Z,0.70
2022-11-26T03:54:28.012Z,0.50
2022-11-26T03:56:54.578Z,0.60
2022-11-26T03:59:21.159Z,0.53
2022-11-26T04:01:47.783Z,0.70
2022-11-26T04:04:14.417Z,0.70
2022-11-26T04:06:40.987Z,0.60
2022-11-26T04:09:07.571Z,0.60
2022-11-26T04:11:34.239Z,0.53
2022-11-26T04:14:00.837Z,0.60
2022-11-26T04:16:27.447Z,0.57
2022-11-26T04:18:54.094Z,0.57
2022-11-26T04:21:20.665Z,0.53
2022-11-26T04:23:47.274Z,0.50
2022-11-26T04:26:13.852Z,0.60
2022-11-26T04:28:40.451Z,0.60
2022-11-26T04:31:07.029Z,0.60
2022-11-26T04:33:33.614Z,0.50
2022-11-26T04:36:00.761Z,0.60
2022-11-26T04:38:27.362Z,0.67
2022-11-26T04:40:54.054Z,0.50
2022-11-26T04:43:20.633Z,0.50
2022-11-26T04:45:47.271Z,0.53
2022-11-26T04:48:13.921Z,0.53
2022-11-26T04:50:40.495Z,0.70
2022-11-26T04:53:07.157Z,0.53
2022-11-26T04:55:33.814Z,0.60
2022-11-26T04:58:00.412Z,0.60
2022-11-26T05:00:27.013Z,0.50
2022-11-26T05:02:53.629Z,0.40
2022-11-26T05:05:20.215Z,0.60
2022-11-26T05:07:46.871Z,0.70
2022-11-26T05:10:13.661Z,0.50
2022-11-26T05:12:40.231Z,0.60
2022-11-26T05:15:07.279Z,0.50
2022-11-26T05:17:33.863Z,0.50
2022-11-26T05:20:00.451Z,0.40
2022-11-26T05:22:27.139Z,0.50
2022-11-26T05:24:53.721Z,0.50
2022-11-26T05:27:20.291Z,0.60
2022-11-26T05:29:46.873Z,0.40
2022-11-26T05:32:13.443Z,0.50
2022-11-26T05:34:40.349Z,0.47
2022-11-26T05:37:07.137Z,0.60
2022-11-26T05:39:33.733Z,0.50
2022-11-26T05:42:03.625Z,0.50
2022-11-26T05:44:32.855Z,0.50
2022-11-26T05:46:59.431Z,0.60
2022-11-26T05:49:26.048Z,0.60
2022-11-26T05:51:52.730Z,0.50
2022-11-26T05:54:19.313Z,0.70
2022-11-26T05:56:45.877Z,0.43
2022-11-26T05:59:12.502Z,0.60
2022-11-26T06:01:39.450Z,0.50
2022-11-26T06:04:06.046Z,0.40
2022-11-26T06:06:32.635Z,0.50
2022-11-26T06:08:59.221Z,0.40
2022-11-26T06:11:25.797Z,0.60
2022-11-26T06:13:52.374Z,0.50
2022-11-26T06:16:18.987Z,0.50
2022-11-26T06:18:45.577Z,0.57
2022-11-26T06:21:12.155Z,0.50
2022-11-26T06:23:38.869Z,0.60
2022-11-26T06:26:12.164Z,0.60
2022-11-26T06:28:39.063Z,0.40
2022-11-26T06:31:05.764Z,0.50
2022-11-26T06:33:32.617Z,0.50
2022-11-26T06:36:00.446Z,0.60
2022-11-26T06:38:27.358Z,0.43
2022-11-26T06:41:07.142Z,0.50
2022-11-26T06:43:34.346Z,0.60
2022-11-26T06:46:05.233Z,0.60
2022-11-26T06:48:32.117Z,0.60
2022-11-26T06:51:03.708Z,0.50
2022-11-26T06:53:30.357Z,0.60
2022-11-26T06:56:02.795Z,0.60
2022-11-26T06:58:29.371Z,0.40
2022-11-26T07:00:56.031Z,0.50
2022-11-26T07:03:24.923Z,0.53
2022-11-26T07:05:52.913Z,0.60
2022-11-26T07:08:19.488Z,0.50
2022-11-26T07:10:48.958Z,0.50
2022-11-26T07:13:15.961Z,0.60
2022-11-26T07:15:42.588Z,0.50
2022-11-26T07:18:09.217Z,0.53
2022-11-26T07:20:36.718Z,0.50
2022-11-26T07:23:04.527Z,0.70
2022-11-26T07:25:31.195Z,0.57
2022-11-26T07:27:58.133Z,0.40
2022-11-26T07:30:24.718Z,0.60
2022-11-26T07:32:51.294Z,0.50
2022-11-26T07:35:18.006Z,0.60
2022-11-26T07:37:44.697Z,0.60
2022-11-26T07:40:11.662Z,0.60
2022-11-26T07:42:38.235Z,0.50
2022-11-26T07:45:05.190Z,0.70
2022-11-26T07:47:31.828Z,0.50
2022-11-26T07:49:58.407Z,0.60
2022-11-26T07:52:24.990Z,0.60
2022-11-26T07:54:51.575Z,0.50
2022-11-26T07:57:18.308Z,0.70
2022-11-26T07:59:44.930Z,0.50
2022-11-26T08:02:14.959Z,0.63
2022-11-26T08:04:41.685Z,0.57
2022-11-26T08:07:08.286Z,0.50
2022-11-26T08:09:34.910Z,0.50
2022-11-26T08:12:01.516Z,0.57
2022-11-26T08:14:28.113Z,0.50
2022-11-26T08:16:54.749Z,0.40
2022-11-26T08:19:21.391Z,0.60
2022-11-26T08:21:47.958Z,0.63
2022-11-26T08:24:15.895Z,0.40
2022-11-26T08:26:44.505Z,0.57
2022-11-26T08:29:11.658Z,0.60
2022-11-26T08:31:45.281Z,0.60
2022-11-26T08:34:14.443Z,0.53
2022-11-26T08:36:41.061Z,0.40
2022-11-26T08:39:07.657Z,0.60
2022-11-26T08:41:34.226Z,0.50
2022-11-26T08:44:08.541Z,0.60
2022-11-26T08:46:37.021Z,0.67
2022-11-26T08:49:04.108Z,0.70
2022-11-26T08:51:30.726Z,0.60
2022-11-26T08:53:57.320Z,0.60
2022-11-26T08:56:24.468Z,0.40
2022-11-26T08:58:51.659Z,0.70
2022-11-26T09:01:23.281Z,0.57
2022-11-26T09:03:53.692Z,0.43
2022-11-26T09:06:20.923Z,0.60
2022-11-26T09:09:06.298Z,0.43
2022-11-26T09:11:34.262Z,0.53
2022-11-26T09:14:00.833Z,0.50
2022-11-26T09:16:27.665Z,0.60
2022-11-26T09:18:54.305Z,0.50
2022-11-26T09:21:21.099Z,0.57
2022-11-26T09:23:47.679Z,0.57
2022-11-26T09:26:14.288Z,0.50
2022-11-26T09:28:40.891Z,0.60
2022-11-26T09:31:07.516Z,0.70
2022-11-26T09:33:34.104Z,0.80
2022-11-26T09:36:14.211Z,0.60
2022-11-26T09:38:40.886Z,0.60
2022-11-26T09:41:30.518Z,0.60
2022-11-26T09:44:22.125Z,0.40
2022-11-26T09:47:15.623Z,0.60
2022-11-26T09:50:16.474Z,0.50
2022-11-26T09:52:59.516Z,0.50
2022-11-26T09:55:33.363Z,0.60
2022-11-26T09:58:39.079Z,0.60
2022-11-26T10:01:06.576Z,0.60
2022-11-26T10:03:37.148Z,0.53
2022-11-26T10:06:30.695Z,0.43
2022-11-26T10:09:10.388Z,0.67
2022-11-26T10:12:04.069Z,0.60
2022-11-26T10:14:58.341Z,0.63
2022-11-26T10:17:40.317Z,0.70
2022-11-26T10:20:49.106Z,0.70
2022-11-26T10:23:36.983Z,0.70
2022-11-26T10:26:07.414Z,0.63
2022-11-26T10:28:40.241Z,0.63
2022-11-26T10:31:15.685Z,0.67
2022-11-26T10:33:55.525Z,0.60
2022-11-26T10:36:28.083Z,0.53
2022-11-26T10:38:58.127Z,0.60
2022-11-26T10:41:26.365Z,0.60
2022-11-26T10:43:52.979Z,0.50
2022-11-26T10:46:31.067Z,0.70
2022-11-26T10:49:24.005Z,0.60
2022-11-26T10:51:52.145Z,0.50
2022-11-26T10:54:29.964Z,0.70
2022-11-26T10:56:56.667Z,0.60
2022-11-26T10:59:28.910Z,0.50
2022-11-26T11:01:57.701Z,0.70
2022-11-26T11:04:34.986Z,0.60
2022-11-26T11:07:01.578Z,0.50
2022-11-26T11:09:37.506Z,0.60
2022-11-26T11:12:21.806Z,0.50
2022-11-26T11:14:49.265Z,0.80
2022-11-26T11:17:25.171Z,0.60
2022-11-26T11:19:51.738Z,0.60
2022-11-26T11:22:21.369Z,0.50
2022-11-26T11:24:47.950Z,0.60
2022-11-26T11:27:25.387Z,0.50
2022-11-26T11:29:52.257Z,0.50
2022-11-26T11:32:48.463Z,0.50
2022-11-26T11:35:30.897Z,0.50
2022-11-26T11:37:57.694Z,0.60
2022-11-26T11:40:27.359Z,0.50
2022-11-26T11:43:04.266Z,0.60
2022-11-26T11:45:39.543Z,0.70
2022-11-26T11:48:11.831Z,0.60
2022-11-26T11:50:43.697Z,0.57
2022-11-26T11:53:50.214Z,0.50
2022-11-26T11:56:34.098Z,0.60
2022-11-26T11:59:19.122Z,0.73
2022-11-26T12:02:12.513Z,0.50
2022-11-26T12:04:54.481Z,0.50
2022-11-26T12:07:38.761Z,0.70
2022-11-26T12:10:20.629Z,0.70
2022-11-26T12:12:52.403Z,0.70
2022-11-26T12:15:35.845Z,0.80
2022-11-26T12:18:22.506Z,0.80
2022-11-26T12:20:55.122Z,0.70
2022-11-26T12:23:50.738Z,0.80
2022-11-26T12:26:27.501Z,0.60
2022-11-26T12:29:01.913Z,0.67
2022-11-26T12:31:43.786Z,0.60
2022-11-26T12:34:26.346Z,0.70
2022-11-26T12:37:11.161Z,0.70
2022-11-26T12:39:40.751Z,0.57
2022-11-26T12:42:25.513Z,0.60
2022-11-26T12:44:52.378Z,0.70
2022-11-26T12:47:26.561Z,0.60
2022-11-26T12:50:05.848Z,0.80
2022-11-26T12:52:55.443Z,0.60
2022-11-26T12:55:48.857Z,0.80
2022-11-26T12:58:25.873Z,0.50
2022-11-26T13:00:54.520Z,0.70
2022-11-26T13:03:27.286Z,0.60
2022-11-26T13:05:58.744Z,0.80
2022-11-26T13:08:59.857Z,0.60
2022-11-26T13:11:28.713Z,0.70
2022-11-26T13:14:20.367Z,0.70
2022-11-26T13:16:55.088Z,0.60
2022-11-26T13:19:31.411Z,0.60
2022-11-26T13:22:28.854Z,0.60
2022-11-26T13:25:31.676Z,0.80
2022-11-26T13:28:26.146Z,0.60
2022-11-26T13:31:17.903Z,0.80
2022-11-26T13:34:00.429Z,0.70
2022-11-26T13:36:46.215Z,0.60
2022-11-26T13:39:41.969Z,0.60
2022-11-26T13:42:22.988Z,0.70
2022-11-26T13:45:08.152Z,0.60
2022-11-26T13:47:43.791Z,0.80
2022-11-26T13:50:25.744Z,0.73
2022-11-26T13:52:57.490Z,0.80
2022-11-26T13:55:28.041Z,0.83
2022-11-26T13:57:56.762Z,0.63
2022-11-26T14:00:31.403Z,0.83
2022-11-26T14:02:58.632Z,0.60
2022-11-26T14:05:45.331Z,0.80
2022-11-26T14:08:34.928Z,0.60
2022-11-26T14:11:01.711Z,0.70
2022-11-26T14:13:28.357Z,0.80
2022-11-26T14:15:59.804Z,0.70
2022-11-26T14:18:48.247Z,0.80
2022-11-26T14:21:20.982Z,0.70
2022-11-26T14:23:52.019Z,0.80
2022-11-26T14:26:19.489Z,0.70
2022-11-26T14:28:46.110Z,0.80
2022-11-26T14:31:15.899Z,0.50
2022-11-26T14:33:44.977Z,1.00
2022-11-26T14:36:21.487Z,0.70
2022-11-26T14:39:04.151Z,0.80
2022-11-26T14:41:56.906Z,0.90
2022-11-26T14:44:27.020Z,0.80
2022-11-26T14:46:55.424Z,0.80
2022-11-26T14:49:34.929Z,0.60
2022-11-26T14:52:03.201Z,0.70
2022-11-26T14:54:34.126Z,0.70
2022-11-26T14:57:10.528Z,0.80
2022-11-26T14:59:37.107Z,0.70
2022-11-26T15:02:03.831Z,0.80
2022-11-26T15:04:32.414Z,0.70
2022-11-26T15:06:58.974Z,0.80
2022-11-26T15:09:27.113Z,0.70
2022-11-26T15:12:05.950Z,0.73
2022-11-26T15:14:48.915Z,0.70
2022-11-26T15:17:19.178Z,0.80
2022-11-26T15:19:45.906Z,0.77
2022-11-26T15:22:28.875Z,0.70
2022-11-26T15:24:55.559Z,0.80
2022-11-26T15:27:35.797Z,0.77
2022-11-26T15:30:03.999Z,0.80
2022-11-26T15:32:31.721Z,0.80
2022-11-26T15:34:59.998Z,0.80
2022-11-26T15:37:27.287Z,0.80
2022-11-26T15:40:20.613Z,0.80
2022-11-26T15:42:47.953Z,0.90
2022-11-26T15:45:15.946Z,0.80
2022-11-26T15:47:49.635Z,0.77
2022-11-26T15:50:32.772Z,0.80
2022-11-26T15:53:07.443Z,0.90
2022-11-26T15:55:35.497Z,0.70
2022-11-26T15:58:04.535Z,0.90
2022-11-26T16:00:38.567Z,0.70
2022-11-26T16:03:07.466Z,0.70
2022-11-26T16:05:38.606Z,0.80
2022-11-26T16:08:22.549Z,0.70
2022-11-26T16:11:18.695Z,0.80
2022-11-26T16:13:45.306Z,0.83
2022-11-26T16:16:25.388Z,1.00
2022-11-26T16:19:00.515Z,0.77
2022-11-26T16:21:31.885Z,0.90
2022-11-26T16:24:23.218Z,0.53
2022-11-26T16:27:05.127Z,0.50
2022-11-26T16:29:32.981Z,0.80
2022-11-26T16:31:59.657Z,0.80
2022-11-26T16:34:27.101Z,0.73
2022-11-26T16:37:02.978Z,0.70
2022-11-26T16:39:30.943Z,0.87
2022-11-26T16:41:58.676Z,0.70
2022-11-26T16:44:25.275Z,0.80
2022-11-26T16:46:51.974Z,0.80
2022-11-26T16:49:18.537Z,0.73
2022-11-26T16:51:45.138Z,0.80
2022-11-26T16:54:15.603Z,0.70
2022-11-26T16:56:42.236Z,0.80
2022-11-26T16:59:17.922Z,0.80
2022-11-26T17:01:44.499Z,0.73
2022-11-26T17:04:12.286Z,0.80
2022-11-26T17:06:38.871Z,0.80
2022-11-26T17:09:05.429Z,0.80
2022-11-26T17:11:32.012Z,0.70
2022-11-26T17:13:58.579Z,0.90
2022-11-26T17:16:26.028Z,0.73
2022-11-26T17:18:52.947Z,0.73
2022-11-26T17:21:19.893Z,0.80
2022-11-26T17:23:46.500Z,0.87
2022-11-26T17:26:21.027Z,0.80
2022-11-26T17:28:48.007Z,0.77
2022-11-26T17:31:14.644Z,0.77
2022-11-26T17:33:41.259Z,0.90
2022-11-26T17:36:17.931Z,0.80
2022-11-26T17:38:44.793Z,0.83
2022-11-26T17:41:11.836Z,0.70
2022-11-26T17:43:38.601Z,0.80
2022-11-26T17:46:05.277Z,0.90
2022-11-26T17:48:31.898Z,0.97
2022-11-26T17:50:58.479Z,0.70
2022-11-26T17:53:25.067Z,0.70
2022-11-26T17:55:51.674Z,0.70
2022-11-26T17:58:18.359Z,0.70
2022-11-26T18:00:44.977Z,0.70
2022-11-26T18:03:11.556Z,0.90
2022-11-26T18:05:42.017Z,1.00
2022-11-26T18:08:09.071Z,0.93
2022-11-26T18:10:38.371Z,0.70
2022-11-26T18:13:04.946Z,0.80
2022-11-26T18:15:31.512Z,0.80
2022-11-26T18:17:58.104Z,0.60
2022-11-26T18:20:26.867Z,0.80
2022-11-26T18:22:55.117Z,0.90
2022-11-26T18:25:21.839Z,1.10
2022-11-26T18:27:48.470Z,1.03
2022-11-26T18:30:16.718Z,0.90
2022-11-26T18:32:43.346Z,1.03
2022-11-26T18:35:10.066Z,0.70
2022-11-26T18:37:37.601Z,1.00
2022-11-26T18:40:05.392Z,0.97
2022-11-26T18:42:39.155Z,1.00
2022-11-26T18:45:10.104Z,0.80
2022-11-26T18:47:37.457Z,0.80
2022-11-26T18:50:04.307Z,0.80
2022-11-26T18:52:30.899Z,0.90
2022-11-26T18:54:58.839Z,0.70
2022-11-26T18:57:25.452Z,0.80
2022-11-26T18:59:52.025Z,0.77
2022-11-26T19:02:18.686Z,0.83
2022-11-26T19:04:45.347Z,0.80
2022-11-26T19:07:12.568Z,0.73
2022-11-26T19:09:39.596Z,1.00
2022-11-26T19:12:06.525Z,0.90
2022-11-26T19:14:33.111Z,0.70
2022-11-26T19:17:00.571Z,0.90
2022-11-26T19:19:28.136Z,0.80
2022-11-26T19:22:00.691Z,0.90
2022-11-26T19:24:28.061Z,0.80
2022-11-26T19:26:54.620Z,0.90
2022-11-26T19:29:21.370Z,1.00
2022-11-26T19:31:48.006Z,0.90
2022-11-26T19:34:14.884Z,0.70
2022-11-26T19:36:41.499Z,0.77
2022-11-26T19:39:08.703Z,0.97
2022-11-26T19:41:35.431Z,0.70
2022-11-26T19:44:03.947Z,0.70
2022-11-26T19:46:30.771Z,0.83
2022-11-26T19:48:57.397Z,0.77
2022-11-26T19:51:24.625Z,0.80
2022-11-26T19:53:52.399Z,0.70
2022-11-26T19:56:29.232Z,0.63
2022-11-26T19:58:58.226Z,0.60
2022-11-26T20:01:25.905Z,0.70
2022-11-26T20:03:52.813Z,0.70
2022-11-26T20:06:21.317Z,0.90
2022-11-26T20:08:48.200Z,0.83
2022-11-26T20:11:15.202Z,0.70
2022-11-26T20:13:42.623Z,0.90
2022-11-26T20:16:11.180Z,0.80
2022-11-26T20:18:38.491Z,0.70
2022-11-26T20:21:07.581Z,0.77
2022-11-26T20:23:34.146Z,0.80
2022-11-26T20:26:00.790Z,0.77
2022-11-26T20:28:27.367Z,1.00
2022-11-26T20:30:54.051Z,0.90
2022-11-26T20:33:22.566Z,0.93
2022-11-26T20:35:49.263Z,0.70
2022-11-26T20:38:15.829Z,0.90
2022-11-26T20:40:42.434Z,0.90
2022-11-26T20:43:09.903Z,0.90
2022-11-26T20:45:36.712Z,1.07
2022-11-26T20:48:04.087Z,0.80
2022-11-26T20:50:30.765Z,0.87
2022-11-26T20:52:57.429Z,0.93
2022-11-26T20:55:25.044Z,1.00
2022-11-26T20:57:51.636Z,0.80
2022-11-26T21:00:19.116Z,1.00
2022-11-26T21:02:47.240Z,1.00
2022-11-26T21:05:14.352Z,0.90
2022-11-26T21:07:40.995Z,1.10
2022-11-26T21:10:08.599Z,1.00
2022-11-26T21:12:36.131Z,0.80
2022-11-26T21:15:02.726Z,0.80
2022-11-26T21:17:29.388Z,0.90
2022-11-26T21:19:56.017Z,1.10
2022-11-26T21:22:22.616Z,0.80
2022-11-26T21:24:49.177Z,0.90
2022-11-26T21:27:16.223Z,0.90
2022-11-26T21:29:42.811Z,1.10
2022-11-26T21:32:09.772Z,0.90
2022-11-26T21:34:36.347Z,0.80
2022-11-26T21:37:02.913Z,0.90
2022-11-26T21:39:29.544Z,0.87
2022-11-26T21:41:56.163Z,0.80
2022-11-26T21:44:22.727Z,0.90
2022-11-26T21:46:49.567Z,0.70
2022-11-26T21:49:16.190Z,0.80
2022-11-26T21:51:42.936Z,0.90
2022-11-26T21:54:09.540Z,0.90
2022-11-26T21:56:36.262Z,1.00
2022-11-26T21:59:02.859Z,0.77
2022-11-26T22:01:36.637Z,0.90
2022-11-26T22:04:16.089Z,0.87
2022-11-26T22:06:43.623Z,1.00
2022-11-26T22:09:10.435Z,0.93
2022-11-26T22:11:38.421Z,0.90
2022-11-26T22:14:05.300Z,0.90
2022-11-26T22:16:31.989Z,0.90
2022-11-26T22:18:58.986Z,0.83
2022-11-26T22:21:29.142Z,1.00
2022-11-26T22:23:55.778Z,0.90
2022-11-26T22:26:22.503Z,0.90
2022-11-26T22:28:49.730Z,1.10
2022-11-26T22:31:33.327Z,1.00
2022-11-26T22:34:03.545Z,0.80
2022-11-26T22:36:30.230Z,0.90
2022-11-26T22:38:56.870Z,1.00
2022-11-26T22:41:23.456Z,0.93
2022-11-26T22:43:50.071Z,1.00
2022-11-26T22:46:18.593Z,0.90
2022-11-26T22:48:52.710Z,0.80
2022-11-26T22:51:19.395Z,0.90
2022-11-26T22:53:53.211Z,0.90
2022-11-26T22:56:19.811Z,1.00
2022-11-26T22:58:46.421Z,1.10
2022-11-26T23:01:27.107Z,0.90
2022-11-26T23:03:54.117Z,0.83
2022-11-26T23:06:21.855Z,0.87
2022-11-26T23:08:48.471Z,1.10
2022-11-26T23:11:21.404Z,0.83
2022-11-26T23:13:48.401Z,1.00
2022-11-26T23:16:15.114Z,0.90
2022-11-26T23:18:41.748Z,0.80
2022-11-26T23:21:21.294Z,0.93
2022-11-26T23:23:47.916Z,0.93
2022-11-26T23:26:20.430Z,1.10
2022-11-26T23:28:49.863Z,1.00
2022-11-26T23:31:21.724Z,0.80
2022-11-26T23:33:48.562Z,0.90
2022-11-26T23:36:15.234Z,0.97
2022-11-26T23:38:41.862Z,0.73
2022-11-26T23:41:08.574Z,1.20
2022-11-26T23:43:35.763Z,1.00
2022-11-26T23:46:07.466Z,1.10
2022-11-26T23:48:34.190Z,1.20
2022-11-26T23:51:00.761Z,0.90
2022-11-26T23:53:27.417Z,0.93
2022-11-26T23:55:54.005Z,0.80
2022-11-26T23:58:20.601Z,1.10
